createdAt,value
2022-12-04T00:00:39.765Z,17.90
2022-12-04T00:03:25.899Z,17.85
2022-12-04T00:06:16.945Z,18.83
2022-12-04T00:09:03.715Z,18.95
2022-12-04T00:11:50.065Z,17.77
2022-12-04T00:14:54.424Z,18.38
2022-12-04T00:17:42.421Z,17.88
2022-12-04T00:20:28.589Z,18.88
2022-12-04T00:23:15.223Z,19.42
2022-12-04T00:26:11.906Z,18.45
2022-12-04T00:28:58.408Z,18.00
2022-12-04T00:31:44.935Z,18.67
2022-12-04T00:34:30.882Z,18.17
2022-12-04T00:37:17.170Z,18.08
2022-12-04T00:40:03.236Z,18.08
2022-12-04T00:42:49.675Z,19.08
2022-12-04T00:45:35.887Z,18.38
2022-12-04T00:48:22.161Z,17.75
2022-12-04T00:51:10.120Z,17.92
2022-12-04T00:53:56.311Z,18.77
2022-12-04T00:56:42.437Z,18.25
2022-12-04T00:59:28.592Z,18.70
2022-12-04T01:02:14.764Z,17.05
2022-12-04T01:05:02.251Z,18.23
2022-12-04T01:07:49.004Z,18.42
2022-12-04T01:10:35.510Z,19.05
2022-12-04T01:13:21.993Z,18.25
2022-12-04T01:16:08.858Z,18.48
2022-12-04T01:18:55.316Z,17.05
2022-12-04T01:21:42.205Z,18.63
2022-12-04T01:24:29.018Z,17.83
2022-12-04T01:27:15.116Z,17.20
2022-12-04T01:30:01.215Z,17.05
2022-12-04T01:32:47.427Z,17.30
2022-12-04T01:35:33.395Z,18.20
2022-12-04T01:38:19.554Z,17.75
2022-12-04T01:41:06.244Z,17.10
2022-12-04T01:44:11.273Z,17.65
2022-12-04T01:46:58.320Z,16.98
2022-12-04T01:49:47.153Z,17.35
2022-12-04T01:52:33.988Z,17.65
2022-12-04T01:55:20.025Z,16.05
2022-12-04T01:58:07.783Z,17.27
2022-12-04T02:00:58.547Z,19.17
2022-12-04T02:03:45.276Z,17.20
2022-12-04T02:06:31.453Z,17.05
2022-12-04T02:09:23.017Z,16.75
2022-12-04T02:12:24.772Z,17.42
2022-12-04T02:15:29.770Z,18.27
2022-12-04T02:18:41.738Z,18.25
2022-12-04T02:21:35.312Z,17.37
2022-12-04T02:24:24.060Z,17.48
2022-12-04T02:27:18.880Z,17.20
2022-12-04T02:30:07.248Z,17.70
2022-12-04T02:32:59.434Z,17.00
2022-12-04T02:35:47.905Z,17.05
2022-12-04T02:38:39.874Z,18.77
2022-12-04T02:41:46.435Z,17.60
2022-12-04T02:44:38.067Z,17.02
2022-12-04T02:47:25.272Z,17.52
2022-12-04T02:50:15.785Z,18.48
2022-12-04T02:53:06.479Z,17.45
2022-12-04T02:55:54.551Z,17.65
2022-12-04T02:58:43.554Z,17.92
2022-12-04T03:01:35.098Z,18.50
2022-12-04T03:04:23.260Z,18.73
2022-12-04T03:07:15.898Z,18.23
2022-12-04T03:10:05.061Z,15.00
2022-12-04T03:12:54.262Z,18.25
2022-12-04T03:15:43.296Z,18.73
2022-12-04T03:18:49.722Z,17.23
2022-12-04T03:21:38.561Z,18.27
2022-12-04T03:24:27.132Z,18.65
2022-12-04T03:27:25.792Z,19.15
2022-12-04T03:30:17.528Z,18.63
2022-12-04T03:33:08.901Z,18.60
2022-12-04T03:36:03.178Z,20.08
2022-12-04T03:38:56.145Z,19.02
2022-12-04T03:42:00.970Z,19.08
2022-12-04T03:44:47.238Z,18.90
2022-12-04T03:47:43.632Z,19.20
2022-12-04T03:50:35.141Z,19.60
2022-12-04T03:53:24.204Z,21.58
2022-12-04T03:56:12.796Z,20.33
2022-12-04T03:59:01.716Z,20.77
2022-12-04T04:01:49.606Z,21.45
2022-12-04T04:04:37.081Z,20.55
2022-12-04T04:07:40.047Z,20.92
2022-12-04T04:10:27.469Z,21.00
2022-12-04T04:13:35.407Z,20.67
2022-12-04T04:16:42.307Z,21.15
2022-12-04T04:19:49.590Z,21.95
2022-12-04T04:22:56.318Z,21.45
2022-12-04T04:25:46.612Z,20.85
2022-12-04T04:28:42.761Z,20.00
2022-12-04T04:31:35.058Z,21.65
2022-12-04T04:34:40.858Z,16.50
2022-12-04T04:37:35.064Z,21.35
2022-12-04T04:40:36.836Z,21.92
2022-12-04T04:43:23.082Z,21.77
2022-12-04T04:46:14.734Z,22.13
2022-12-04T04:49:02.629Z,22.02
2022-12-04T04:51:48.998Z,22.38
2022-12-04T04:54:36.913Z,23.20
2022-12-04T04:57:30.283Z,23.88
2022-12-04T05:00:17.889Z,21.45
2022-12-04T05:03:04.982Z,21.60
2022-12-04T05:05:51.531Z,23.55
2022-12-04T05:08:38.217Z,23.02
2022-12-04T05:11:24.563Z,24.08
2022-12-04T05:14:10.842Z,23.40
2022-12-04T05:17:01.682Z,24.02
2022-12-04T05:19:54.820Z,22.67
2022-12-04T05:25:28.101Z,23.10
2022-12-04T05:28:14.588Z,23.83
2022-12-04T05:31:04.477Z,23.98
2022-12-04T05:33:50.966Z,24.23
2022-12-04T05:36:37.174Z,23.65
2022-12-04T05:39:23.409Z,24.98
2022-12-04T05:42:09.472Z,24.90
2022-12-04T05:44:55.709Z,25.02
2022-12-04T05:47:42.875Z,23.88
2022-12-04T05:50:29.042Z,25.35
2022-12-04T05:53:15.184Z,24.10
2022-12-04T05:56:02.787Z,24.90
2022-12-04T05:58:49.097Z,24.05
2022-12-04T06:01:35.544Z,24.60
2022-12-04T06:04:22.201Z,23.83
2022-12-04T06:07:09.073Z,24.40
2022-12-04T06:09:56.210Z,23.23
2022-12-04T06:12:42.291Z,24.08
2022-12-04T06:15:28.356Z,24.00
2022-12-04T06:18:14.589Z,22.65
2022-12-04T06:21:00.835Z,22.67
2022-12-04T06:23:46.893Z,23.23
2022-12-04T06:26:32.950Z,24.20
2022-12-04T06:29:19.224Z,21.52
2022-12-04T06:32:06.059Z,22.35
2022-12-04T06:34:53.471Z,23.08
2022-12-04T06:37:39.555Z,23.58
2022-12-04T06:40:25.906Z,23.50
2022-12-04T06:43:12.169Z,23.02
2022-12-04T06:46:05.755Z,22.58
2022-12-04T06:48:51.967Z,22.30
2022-12-04T06:51:41.024Z,22.25
2022-12-04T06:54:27.393Z,23.80
2022-12-04T06:57:13.855Z,23.63
2022-12-04T06:59:59.766Z,22.88
2022-12-04T07:02:46.258Z,23.67
2022-12-04T07:05:32.487Z,23.42
2022-12-04T07:08:19.490Z,22.50
2022-12-04T07:11:05.688Z,23.20
2022-12-04T07:13:52.101Z,22.67
2022-12-04T07:16:41.225Z,22.90
2022-12-04T07:19:28.295Z,20.90
2022-12-04T07:22:14.627Z,22.45
2022-12-04T07:25:00.918Z,22.23
2022-12-04T07:27:47.208Z,23.17
2022-12-04T07:30:33.470Z,22.15
2022-12-04T07:33:19.668Z,22.67
2022-12-04T07:36:07.048Z,21.85
2022-12-04T07:38:55.252Z,21.95
2022-12-04T07:41:41.473Z,22.42
2022-12-04T07:44:27.896Z,21.30
2022-12-04T07:47:14.402Z,22.10
2022-12-04T07:50:00.833Z,21.63
2022-12-04T07:52:47.293Z,21.63
2022-12-04T07:55:33.497Z,20.80
2022-12-04T07:58:19.656Z,21.30
2022-12-04T08:01:16.654Z,22.90
2022-12-04T08:04:04.642Z,21.15
2022-12-04T08:06:50.992Z,21.92
2022-12-04T08:09:37.207Z,21.23
2022-12-04T08:12:23.254Z,22.60
2022-12-04T08:15:09.993Z,21.38
2022-12-04T08:17:56.468Z,21.65
2022-12-04T08:20:42.643Z,20.95
2022-12-04T08:23:29.036Z,22.50
2022-12-04T08:26:15.387Z,21.67
2022-12-04T08:29:04.966Z,22.83
2022-12-04T08:31:51.200Z,22.10
2022-12-04T08:34:38.082Z,22.63
2022-12-04T08:37:24.642Z,22.00
2022-12-04T08:40:11.971Z,20.70
2022-12-04T08:42:58.164Z,22.30
2022-12-04T08:45:44.214Z,21.83
2022-12-04T08:48:30.773Z,24.20
2022-12-04T08:51:25.441Z,22.52
2022-12-04T08:54:13.333Z,22.43
2022-12-04T08:56:59.752Z,23.65
2022-12-04T08:59:45.896Z,22.58
2022-12-04T09:02:32.182Z,23.25
2022-12-04T09:05:18.369Z,22.90
2022-12-04T09:08:04.480Z,22.15
2022-12-04T09:10:50.857Z,22.83
2022-12-04T09:13:38.456Z,21.48
2022-12-04T09:16:37.677Z,23.02
2022-12-04T09:19:23.959Z,21.38
2022-12-04T09:22:11.033Z,22.08
2022-12-04T09:24:57.299Z,22.95
2022-12-04T09:27:43.779Z,23.20
2022-12-04T09:30:30.064Z,23.15
2022-12-04T09:33:16.567Z,24.88
2022-12-04T09:36:04.404Z,24.38
2022-12-04T09:38:52.068Z,24.20
2022-12-04T09:41:41.255Z,22.75
2022-12-04T09:44:33.393Z,23.70
2022-12-04T09:47:22.660Z,24.00
2022-12-04T09:50:21.562Z,24.90
2022-12-04T09:53:11.819Z,25.35
2022-12-04T09:56:03.673Z,24.75
2022-12-04T09:59:01.360Z,24.20
2022-12-04T10:01:49.195Z,23.85
2022-12-04T10:04:35.372Z,25.55
2022-12-04T10:07:26.746Z,24.52
2022-12-04T10:10:21.960Z,24.77
2022-12-04T10:13:27.021Z,24.33
2022-12-04T10:16:23.002Z,23.58
2022-12-04T10:19:09.527Z,25.35
2022-12-04T10:22:18.775Z,24.35
2022-12-04T10:25:09.867Z,25.38
2022-12-04T10:28:03.609Z,25.27
2022-12-04T10:30:53.124Z,24.70
2022-12-04T10:33:42.136Z,24.52
2022-12-04T10:36:34.248Z,25.10
2022-12-04T10:39:24.932Z,25.95
2022-12-04T10:42:30.051Z,25.75
2022-12-04T10:45:16.628Z,24.25
2022-12-04T10:48:03.211Z,24.45
2022-12-04T10:50:49.945Z,25.05
2022-12-04T10:53:38.247Z,24.40
2022-12-04T10:56:26.086Z,24.45
2022-12-04T10:59:16.740Z,24.13
2022-12-04T11:02:26.693Z,25.25
2022-12-04T11:05:32.192Z,24.52
2022-12-04T11:08:27.053Z,24.88
2022-12-04T11:11:14.707Z,23.90
2022-12-04T11:14:15.148Z,24.33
2022-12-04T11:17:02.936Z,24.42
2022-12-04T11:19:59.926Z,23.60
2022-12-04T11:22:53.127Z,24.08
2022-12-04T11:28:41.080Z,22.92
2022-12-04T11:31:28.763Z,24.08
2022-12-04T11:34:19.566Z,24.17
2022-12-04T11:37:07.445Z,24.98
2022-12-04T11:39:54.689Z,25.13
2022-12-04T11:42:41.570Z,23.60
2022-12-04T11:45:27.680Z,24.00
2022-12-04T11:48:15.546Z,24.15
2022-12-04T11:51:08.316Z,24.88
2022-12-04T11:54:17.932Z,23.60
2022-12-04T11:57:19.592Z,25.98
2022-12-04T12:00:35.167Z,24.13
2022-12-04T12:03:27.747Z,24.25
2022-12-04T12:06:31.108Z,23.77
2022-12-04T12:09:35.760Z,24.25
2022-12-04T12:12:34.129Z,23.42
2022-12-04T12:15:26.479Z,24.13
2022-12-04T12:18:27.366Z,22.80
2022-12-04T12:21:23.056Z,23.80
2022-12-04T12:24:12.173Z,22.85
2022-12-04T12:27:04.598Z,23.65
2022-12-04T12:30:09.890Z,23.55
2022-12-04T12:33:02.689Z,23.23
2022-12-04T12:35:55.378Z,24.90
2022-12-04T12:39:00.453Z,23.85
2022-12-04T12:41:53.113Z,24.48
2022-12-04T12:44:49.036Z,24.42
2022-12-04T12:47:39.215Z,25.92
2022-12-04T12:50:29.510Z,24.48
2022-12-04T12:53:22.065Z,25.00
2022-12-04T12:56:13.043Z,24.38
2022-12-04T12:59:01.813Z,23.83
2022-12-04T13:01:54.772Z,22.90
2022-12-04T13:04:44.558Z,22.80
2022-12-04T13:07:37.642Z,23.25
2022-12-04T13:10:26.208Z,24.48
2022-12-04T13:13:40.800Z,22.80
2022-12-04T13:16:27.608Z,23.63
2022-12-04T13:19:17.195Z,23.92
2022-12-04T13:22:09.577Z,25.20
2022-12-04T13:25:14.624Z,26.60
2022-12-04T13:28:10.945Z,23.38
2022-12-04T13:31:12.779Z,24.88
2022-12-04T13:34:24.395Z,25.67
2022-12-04T13:37:10.691Z,25.33
2022-12-04T13:40:15.774Z,24.17
2022-12-04T13:43:21.509Z,24.92
2022-12-04T13:46:26.758Z,24.85
2022-12-04T13:49:19.323Z,26.38
2022-12-04T13:52:08.044Z,25.35
2022-12-04T13:54:59.245Z,25.85
2022-12-04T13:57:53.872Z,26.85
2022-12-04T14:00:42.755Z,26.65
2022-12-04T14:03:38.850Z,27.02
2022-12-04T14:06:44.116Z,25.10
2022-12-04T14:09:35.044Z,26.38
2022-12-04T14:12:25.681Z,25.27
2022-12-04T14:15:25.322Z,25.15
2022-12-04T14:18:12.641Z,26.45
2022-12-04T14:21:00.396Z,26.13
2022-12-04T14:23:47.155Z,24.75
2022-12-04T14:27:03.192Z,26.15
2022-12-04T14:29:46.808Z,26.02
2022-12-04T14:35:27.414Z,26.48
2022-12-04T14:38:19.379Z,27.85
2022-12-04T14:41:05.670Z,26.30
2022-12-04T14:43:51.744Z,25.25
2022-12-04T14:46:41.117Z,25.05
2022-12-04T14:49:33.794Z,25.15
2022-12-04T14:52:29.296Z,25.55
2022-12-04T14:55:27.397Z,23.65
2022-12-04T14:58:30.229Z,25.10
2022-12-04T15:01:28.352Z,24.10
2022-12-04T15:04:24.564Z,25.27
2022-12-04T15:07:11.833Z,26.30
2022-12-04T15:10:18.457Z,24.95
2022-12-04T15:13:04.975Z,25.40
2022-12-04T15:15:52.224Z,25.23
2022-12-04T15:18:39.784Z,25.60
2022-12-04T15:21:30.690Z,24.25
2022-12-04T15:24:20.213Z,24.95
2022-12-04T15:27:07.709Z,23.52
2022-12-04T15:29:55.319Z,23.52
2022-12-04T15:32:41.801Z,24.50
2022-12-04T15:35:30.262Z,24.02
2022-12-04T15:38:17.147Z,23.80
2022-12-04T15:41:03.547Z,23.52
2022-12-04T15:44:33.735Z,22.35
2022-12-04T15:47:47.045Z,22.25
2022-12-04T15:50:33.909Z,23.35
2022-12-04T15:53:27.612Z,22.90
2022-12-04T15:56:42.093Z,23.33
2022-12-04T15:59:29.254Z,23.38
2022-12-04T16:02:24.291Z,24.45
2022-12-04T16:05:23.024Z,23.73
2022-12-04T16:08:26.104Z,23.40
2022-12-04T16:11:21.720Z,23.33
2022-12-04T16:14:14.137Z,23.85
2022-12-04T16:17:06.290Z,22.43
2022-12-04T16:19:53.198Z,18.80
2022-12-04T16:22:40.777Z,23.88
2022-12-04T16:25:29.034Z,23.48
2022-12-04T16:28:15.126Z,21.80
2022-12-04T16:31:01.483Z,23.15
2022-12-04T16:33:47.932Z,24.15
2022-12-04T16:36:33.897Z,23.35
2022-12-04T16:39:20.134Z,24.27
2022-12-04T16:42:06.711Z,24.98
2022-12-04T16:44:53.487Z,23.15
2022-12-04T16:47:39.852Z,25.15
2022-12-04T16:50:26.612Z,25.58
2022-12-04T16:53:17.704Z,25.25
2022-12-04T16:56:04.008Z,25.60
2022-12-04T16:58:50.277Z,24.77
2022-12-04T17:01:39.235Z,24.88
2022-12-04T17:04:25.731Z,25.00
2022-12-04T17:07:11.947Z,24.23
2022-12-04T17:09:58.525Z,24.95
2022-12-04T17:12:44.903Z,24.63
2022-12-04T17:15:31.320Z,24.67
2022-12-04T17:18:21.272Z,25.67
2022-12-04T17:21:08.707Z,24.23
2022-12-04T17:23:54.759Z,22.50
2022-12-04T17:26:41.124Z,23.90
2022-12-04T17:29:27.502Z,23.08
2022-12-04T17:32:13.518Z,23.17
2022-12-04T17:34:59.866Z,24.48
2022-12-04T17:37:46.550Z,24.75
2022-12-04T17:40:33.368Z,23.20
2022-12-04T17:43:22.226Z,24.17
2022-12-04T17:46:09.653Z,23.10
2022-12-04T17:48:57.216Z,24.05
2022-12-04T17:51:45.257Z,23.65
2022-12-04T17:54:31.935Z,23.60
2022-12-04T17:57:18.576Z,24.65
2022-12-04T18:00:05.135Z,23.83
2022-12-04T18:02:58.732Z,23.88
2022-12-04T18:05:44.908Z,24.88
2022-12-04T18:08:30.878Z,22.83
2022-12-04T18:11:17.302Z,23.95
2022-12-04T18:14:10.283Z,22.83
2022-12-04T18:16:59.300Z,23.70
2022-12-04T18:19:45.613Z,23.58
2022-12-04T18:22:31.746Z,22.80
2022-12-04T18:25:18.065Z,22.85
2022-12-04T18:28:04.302Z,23.23
2022-12-04T18:30:50.561Z,23.23
2022-12-04T18:33:37.941Z,21.92
2022-12-04T18:36:25.653Z,22.00
2022-12-04T18:39:13.446Z,22.83
2022-12-04T18:41:59.691Z,22.23
2022-12-04T18:44:45.978Z,23.13
2022-12-04T18:47:32.460Z,24.05
2022-12-04T18:50:18.628Z,22.77
2022-12-04T18:53:05.225Z,22.70
2022-12-04T18:55:51.812Z,23.20
2022-12-04T18:58:37.986Z,23.58
2022-12-04T19:01:25.057Z,23.90
2022-12-04T19:04:13.453Z,22.55
2022-12-04T19:06:59.998Z,23.70
2022-12-04T19:10:10.311Z,23.65
2022-12-04T19:12:53.344Z,23.70
2022-12-04T19:15:43.639Z,24.63
2022-12-04T19:18:30.439Z,24.08
2022-12-04T19:21:16.794Z,24.70
2022-12-04T19:24:03.917Z,23.55
2022-12-04T19:26:50.170Z,25.15
2022-12-04T19:29:36.613Z,25.13
2022-12-04T19:32:33.846Z,25.60
2022-12-04T19:35:20.630Z,24.70
2022-12-04T19:38:07.368Z,25.58
2022-12-04T19:41:03.977Z,25.23
2022-12-04T19:43:51.694Z,25.58
2022-12-04T19:46:38.138Z,25.80
2022-12-04T19:49:24.077Z,25.65
2022-12-04T19:52:10.323Z,26.38
2022-12-04T19:54:56.644Z,26.83
2022-12-04T19:57:42.808Z,26.77
2022-12-04T20:00:28.712Z,26.00
2022-12-04T20:03:14.817Z,25.42
2022-12-04T20:06:05.257Z,26.42
2022-12-04T20:08:59.482Z,26.10
2022-12-04T20:11:45.768Z,26.80
2022-12-04T20:14:31.794Z,26.40
2022-12-04T20:17:18.060Z,27.92
2022-12-04T20:20:04.458Z,26.85
2022-12-04T20:22:50.453Z,26.85
2022-12-04T20:25:36.585Z,26.60
2022-12-04T20:28:23.028Z,27.25
2022-12-04T20:31:21.597Z,26.85
2022-12-04T20:34:11.990Z,27.75
2022-12-04T20:36:59.155Z,26.92
2022-12-04T20:39:45.253Z,27.67
2022-12-04T20:42:33.639Z,27.02
2022-12-04T20:45:20.297Z,29.13
2022-12-04T20:48:06.833Z,26.70
2022-12-04T20:50:53.846Z,29.50
2022-12-04T20:53:40.432Z,27.27
2022-12-04T20:56:29.900Z,26.58
2022-12-04T20:59:17.257Z,26.73
2022-12-04T21:02:03.437Z,28.33
2022-12-04T21:04:49.650Z,26.98
2022-12-04T21:07:35.763Z,29.15
2022-12-04T21:10:21.952Z,28.10
2022-12-04T21:13:26.887Z,28.25
2022-12-04T21:16:14.015Z,28.92
2022-12-04T21:19:00.838Z,27.23
2022-12-04T21:21:47.357Z,25.45
2022-12-04T21:24:38.456Z,26.00
2022-12-04T21:27:25.323Z,26.27
2022-12-04T21:30:11.866Z,26.52
2022-12-04T21:32:58.426Z,25.67
2022-12-04T21:35:44.649Z,27.30
2022-12-04T21:38:34.148Z,26.38
2022-12-04T21:41:38.992Z,25.38
2022-12-04T21:44:25.254Z,26.45
2022-12-04T21:47:11.337Z,25.55
2022-12-04T21:49:57.748Z,26.88
2022-12-04T21:52:44.632Z,26.13
2022-12-04T21:55:30.920Z,26.65
2022-12-04T21:58:17.126Z,28.05
2022-12-04T22:01:09.612Z,28.08
2022-12-04T22:03:59.089Z,20.38
2022-12-04T22:06:45.375Z,27.02
2022-12-04T22:09:31.567Z,28.00
2022-12-04T22:12:47.756Z,28.70
2022-12-04T22:15:23.949Z,28.58
2022-12-04T22:18:10.446Z,25.60
2022-12-04T22:20:56.964Z,26.30
2022-12-04T22:23:43.592Z,26.15
2022-12-04T22:26:30.359Z,26.48
2022-12-04T22:29:48.755Z,27.50
2022-12-04T22:32:23.381Z,26.45
2022-12-04T22:35:09.670Z,26.15
2022-12-04T22:37:55.949Z,27.67
2022-12-04T22:40:42.049Z,26.50
2022-12-04T22:43:28.879Z,24.80
2022-12-04T22:46:15.891Z,25.50
2022-12-04T22:49:02.242Z,23.80
2022-12-04T22:51:48.260Z,24.98
2022-12-04T22:54:34.302Z,25.20
2022-12-04T22:57:20.423Z,24.95
2022-12-04T23:00:09.400Z,24.30
2022-12-04T23:02:55.405Z,24.00
2022-12-04T23:05:41.859Z,25.02
2022-12-04T23:08:28.646Z,25.00
2022-12-04T23:11:17.058Z,24.60
2022-12-04T23:14:05.194Z,25.10
2022-12-04T23:16:51.715Z,23.25
2022-12-04T23:19:37.850Z,24.23
2022-12-04T23:22:23.941Z,23.25
2022-12-04T23:25:10.077Z,23.23
2022-12-04T23:27:56.238Z,23.92
2022-12-04T23:30:46.810Z,22.70
2022-12-04T23:33:33.412Z,24.67
2022-12-04T23:36:19.505Z,24.70
2022-12-04T23:39:05.480Z,24.58
2022-12-04T23:41:51.649Z,23.20
2022-12-04T23:44:37.692Z,23.05
2022-12-04T23:47:23.880Z,24.98
2022-12-04T23:50:10.077Z,24.17
2022-12-04T23:52:56.318Z,24.25
2022-12-04T23:55:42.522Z,25.05
2022-12-04T23:58:28.773Z,25.27
